createdAt,value
2018-03-24T00:00:29.243Z,1003.8
2018-03-24T00:01:38.369Z,1003.78
2018-03-24T00:02:47.756Z,1003.75
2018-03-24T00:03:57.148Z,1003.74
2018-03-24T00:05:05.979Z,1003.78
2018-03-24T00:06:14.809Z,1003.72
2018-03-24T00:07:23.971Z,1003.73
2018-03-24T00:08:32.803Z,1003.71
2018-03-24T00:09:41.911Z,1003.73
2018-03-24T00:10:50.745Z,1003.72
2018-03-24T00:11:59.576Z,1003.7
2018-03-24T00:13:08.735Z,1003.67
2018-03-24T00:14:17.568Z,1003.68
2018-03-24T00:15:26.401Z,1003.67
2018-03-24T00:16:35.514Z,1003.65
2018-03-24T00:17:44.622Z,1003.66
2018-03-24T00:18:53.452Z,1003.67
2018-03-24T00:20:02.560Z,1003.67
2018-03-24T00:21:11.668Z,1003.65
2018-03-24T00:22:21.050Z,1003.62
2018-03-24T00:23:29.881Z,1003.67
2018-03-24T00:24:38.910Z,1003.63
2018-03-24T00:25:47.740Z,1003.66
2018-03-24T00:26:56.571Z,1003.63
2018-03-24T00:28:05.416Z,1003.65
2018-03-24T00:29:14.232Z,1003.68
2018-03-24T00:30:23.064Z,1003.69
2018-03-24T00:31:31.895Z,1003.67
2018-03-24T00:32:41.004Z,1003.71
2018-03-24T00:33:49.838Z,1003.7
2018-03-24T00:34:58.951Z,1003.7
2018-03-24T00:36:07.933Z,1003.72
2018-03-24T00:37:16.765Z,1003.74
2018-03-24T00:38:25.595Z,1003.72
2018-03-24T00:39:34.423Z,1003.74
2018-03-24T00:40:43.251Z,1003.72
2018-03-24T00:41:52.184Z,1003.7
2018-03-24T00:43:01.297Z,1003.68
2018-03-24T00:44:10.401Z,1003.7
2018-03-24T00:45:19.233Z,1003.71
2018-03-24T00:46:28.066Z,1003.73
2018-03-24T00:47:37.047Z,1003.69
2018-03-24T00:48:46.162Z,1003.7
2018-03-24T00:49:54.989Z,1003.7
2018-03-24T00:51:03.820Z,1003.71
2018-03-24T00:52:12.930Z,1003.74
2018-03-24T00:53:21.859Z,1003.69
2018-03-24T00:54:30.693Z,1003.72
2018-03-24T00:55:39.812Z,1003.74
2018-03-24T00:56:48.643Z,1003.69
2018-03-24T00:57:57.472Z,1003.69
2018-03-24T00:59:06.404Z,1003.73
2018-03-24T01:00:15.240Z,1003.71
2018-03-24T01:01:24.075Z,1003.72
2018-03-24T01:02:33.179Z,1003.72
2018-03-24T01:03:42.009Z,1003.69
2018-03-24T01:04:50.942Z,1003.73
2018-03-24T01:06:00.051Z,1003.73
2018-03-24T01:07:08.884Z,1003.71
2018-03-24T01:08:17.716Z,1003.75
2018-03-24T01:09:26.547Z,1003.73
2018-03-24T01:10:35.479Z,1003.74
2018-03-24T01:11:44.312Z,1003.75
2018-03-24T01:12:53.146Z,1003.76
2018-03-24T01:14:01.981Z,1003.7
2018-03-24T01:15:10.811Z,1003.79
2018-03-24T01:16:20.066Z,1003.79
2018-03-24T01:17:28.895Z,1003.72
2018-03-24T01:18:38.001Z,1003.71
2018-03-24T01:19:46.834Z,1003.71
2018-03-24T01:20:55.668Z,1003.66
2018-03-24T01:22:05.354Z,1003.65
2018-03-24T01:23:14.185Z,1003.68
2018-03-24T01:24:23.017Z,1003.64
2018-03-24T01:25:31.849Z,1003.66
2018-03-24T01:26:40.682Z,1003.66
2018-03-24T01:27:49.663Z,1003.61
2018-03-24T01:28:58.773Z,1003.66
2018-03-24T01:30:07.606Z,1003.62
2018-03-24T01:31:16.722Z,1003.6
2018-03-24T01:32:25.843Z,1003.6
2018-03-24T01:33:34.947Z,1003.59
2018-03-24T01:34:43.779Z,1003.57
2018-03-24T01:35:53.163Z,1003.56
2018-03-24T01:37:02.275Z,1003.56
2018-03-24T01:38:11.108Z,1003.62
2018-03-24T01:39:19.991Z,1003.57
2018-03-24T01:40:28.822Z,1003.6
2018-03-24T01:41:37.656Z,1003.6
2018-03-24T01:42:46.491Z,1003.56
2018-03-24T01:43:55.322Z,1003.59
2018-03-24T01:45:04.203Z,1003.55
2018-03-24T01:46:13.600Z,1003.59
2018-03-24T01:47:22.711Z,1003.59
2018-03-24T01:48:31.542Z,1003.52
2018-03-24T01:49:40.374Z,1003.53
2018-03-24T01:50:49.210Z,1003.52
2018-03-24T01:51:58.042Z,1003.58
2018-03-24T01:53:06.875Z,1003.55
2018-03-24T01:54:15.705Z,1003.52
2018-03-24T01:55:24.537Z,1003.55
2018-03-24T01:56:33.945Z,1003.53
2018-03-24T01:57:42.774Z,1003.56
2018-03-24T01:58:51.604Z,1003.49
2018-03-24T02:00:00.434Z,1003.49
2018-03-24T02:01:09.263Z,1003.52
2018-03-24T02:02:18.250Z,1003.51
2018-03-24T02:03:27.080Z,1003.49
2018-03-24T02:04:35.910Z,1003.53
2018-03-24T02:05:45.017Z,1003.52
2018-03-24T02:06:53.848Z,1003.51
2018-03-24T02:08:02.781Z,1003.49
2018-03-24T02:09:11.611Z,1003.48
2018-03-24T02:10:20.442Z,1003.46
2018-03-24T02:11:29.273Z,1003.5
2018-03-24T02:12:38.305Z,1003.44
2018-03-24T02:13:47.187Z,1003.44
2018-03-24T02:14:56.020Z,1003.4
2018-03-24T02:16:04.892Z,1003.41
2018-03-24T02:17:13.690Z,1003.43
2018-03-24T02:18:22.524Z,1003.44
2018-03-24T02:19:31.407Z,1003.44
2018-03-24T02:20:40.240Z,1003.4
2018-03-24T02:21:49.071Z,1003.4
2018-03-24T02:22:57.900Z,1003.39
2018-03-24T02:24:06.732Z,1003.4
2018-03-24T02:25:15.713Z,1003.42
2018-03-24T02:26:24.549Z,1003.39
2018-03-24T02:27:33.380Z,1003.42
2018-03-24T02:28:42.211Z,1003.4
2018-03-24T02:29:51.043Z,1003.4
2018-03-24T02:30:59.875Z,1003.4
2018-03-24T02:32:08.706Z,1003.41
2018-03-24T02:33:17.818Z,1003.37
2018-03-24T02:34:26.933Z,1003.39
2018-03-24T02:35:35.773Z,1003.37
2018-03-24T02:36:44.649Z,1003.37
2018-03-24T02:37:53.485Z,1003.38
2018-03-24T02:39:02.872Z,1003.39
2018-03-24T02:40:11.702Z,1003.42
2018-03-24T02:41:20.534Z,1003.41
2018-03-24T02:42:29.417Z,1003.42
2018-03-24T02:43:38.298Z,1003.42
2018-03-24T02:44:47.134Z,1003.42
2018-03-24T02:45:55.965Z,1003.43
2018-03-24T02:47:04.797Z,1003.41
2018-03-24T02:48:13.930Z,1003.43
2018-03-24T02:49:22.761Z,1003.45
2018-03-24T02:50:31.599Z,1003.41
2018-03-24T02:51:40.711Z,1003.43
2018-03-24T02:52:49.548Z,1003.4
2018-03-24T02:53:58.477Z,1003.41
2018-03-24T02:55:07.309Z,1003.4
2018-03-24T02:56:16.140Z,1003.38
2018-03-24T02:57:24.970Z,1003.36
2018-03-24T02:58:33.801Z,1003.42
2018-03-24T02:59:43.009Z,1003.44
2018-03-24T03:00:51.841Z,1003.41
2018-03-24T03:02:00.676Z,1003.41
2018-03-24T03:03:09.512Z,1003.39
2018-03-24T03:04:18.340Z,1003.39
2018-03-24T03:05:27.274Z,1003.37
2018-03-24T03:06:36.383Z,1003.4
2018-03-24T03:07:45.498Z,1003.36
2018-03-24T03:08:54.609Z,1003.32
2018-03-24T03:10:03.437Z,1003.37
2018-03-24T03:11:12.320Z,1003.37
2018-03-24T03:12:21.150Z,1003.37
2018-03-24T03:13:29.979Z,1003.37
2018-03-24T03:14:38.812Z,1003.39
2018-03-24T03:15:47.644Z,1003.41
2018-03-24T03:16:56.630Z,1003.39
2018-03-24T03:18:05.462Z,1003.38
2018-03-24T03:19:14.571Z,1003.44
2018-03-24T03:20:23.403Z,1003.39
2018-03-24T03:21:32.234Z,1003.39
2018-03-24T03:22:41.218Z,1003.41
2018-03-24T03:23:50.050Z,1003.41
2018-03-24T03:24:58.884Z,1003.37
2018-03-24T03:26:08.280Z,1003.39
2018-03-24T03:27:17.105Z,1003.39
2018-03-24T03:28:25.986Z,1003.41
2018-03-24T03:29:34.833Z,1003.46
2018-03-24T03:30:43.667Z,1003.45
2018-03-24T03:31:52.506Z,1003.47
2018-03-24T03:33:01.343Z,1003.43
2018-03-24T03:34:10.558Z,1003.44
2018-03-24T03:35:19.389Z,1003.44
2018-03-24T03:36:28.223Z,1003.44
2018-03-24T03:37:37.054Z,1003.46
2018-03-24T03:38:46.220Z,1003.48
2018-03-24T03:39:55.473Z,1003.5
2018-03-24T03:41:04.305Z,1003.46
2018-03-24T03:42:13.137Z,1003.49
2018-03-24T03:43:21.970Z,1003.48
2018-03-24T03:44:30.852Z,1003.48
2018-03-24T03:45:39.685Z,1003.48
2018-03-24T03:46:48.516Z,1003.49
2018-03-24T03:47:57.621Z,1003.46
2018-03-24T03:49:06.449Z,1003.49
2018-03-24T03:50:15.289Z,1003.48
2018-03-24T03:51:24.642Z,1003.5
2018-03-24T03:52:33.479Z,1003.48
2018-03-24T03:53:42.308Z,1003.54
2018-03-24T03:54:51.138Z,1003.52
2018-03-24T03:55:59.969Z,1003.51
2018-03-24T03:57:08.901Z,1003.5
2018-03-24T03:58:17.728Z,1003.51
2018-03-24T03:59:26.836Z,1003.51
2018-03-24T04:00:35.669Z,1003.48
2018-03-24T04:01:45.046Z,1003.45
2018-03-24T04:02:53.926Z,1003.48
2018-03-24T04:04:02.758Z,1003.42
2018-03-24T04:05:11.589Z,1003.49
2018-03-24T04:06:20.420Z,1003.45
2018-03-24T04:07:29.248Z,1003.49
2018-03-24T04:08:38.354Z,1003.49
2018-03-24T04:09:47.185Z,1003.52
2018-03-24T04:10:56.302Z,1003.44
2018-03-24T04:12:05.136Z,1003.49
2018-03-24T04:13:13.967Z,1003.5
2018-03-24T04:14:22.796Z,1003.48
2018-03-24T04:15:31.629Z,1003.5
2018-03-24T04:16:40.461Z,1003.54
2018-03-24T04:17:49.292Z,1003.53
2018-03-24T04:18:58.127Z,1003.48
2018-03-24T04:20:07.489Z,1003.49
2018-03-24T04:21:16.600Z,1003.47
2018-03-24T04:22:25.429Z,1003.51
2018-03-24T04:23:34.258Z,1003.53
2018-03-24T04:24:43.089Z,1003.54
2018-03-24T04:25:51.918Z,1003.52
2018-03-24T04:27:00.750Z,1003.55
2018-03-24T04:28:09.582Z,1003.54
2018-03-24T04:29:18.413Z,1003.56
2018-03-24T04:30:27.241Z,1003.56
2018-03-24T04:31:36.071Z,1003.56
2018-03-24T04:32:44.904Z,1003.54
2018-03-24T04:33:53.738Z,1003.57
2018-03-24T04:35:02.567Z,1003.55
2018-03-24T04:36:11.398Z,1003.55
2018-03-24T04:37:20.329Z,1003.56
2018-03-24T04:38:29.448Z,1003.63
2018-03-24T04:39:38.282Z,1003.59
2018-03-24T04:40:47.117Z,1003.6
2018-03-24T04:41:55.942Z,1003.56
2018-03-24T04:43:04.882Z,1003.62
2018-03-24T04:44:13.716Z,1003.59
2018-03-24T04:45:22.549Z,1003.58
2018-03-24T04:46:31.379Z,1003.56
2018-03-24T04:47:40.210Z,1003.56
2018-03-24T04:48:49.445Z,1003.56
2018-03-24T04:49:58.276Z,1003.53
2018-03-24T04:51:07.102Z,1003.54
2018-03-24T04:52:15.941Z,1003.56
2018-03-24T04:53:24.767Z,1003.57
2018-03-24T04:54:33.597Z,1003.54
2018-03-24T04:55:42.428Z,1003.52
2018-03-24T04:56:51.258Z,1003.52
2018-03-24T04:58:00.094Z,1003.52
2018-03-24T04:59:08.926Z,1003.53
2018-03-24T05:00:18.008Z,1003.53
2018-03-24T05:01:26.840Z,1003.5
2018-03-24T05:02:35.673Z,1003.57
2018-03-24T05:03:44.500Z,1003.59
2018-03-24T05:04:53.329Z,1003.56
2018-03-24T05:06:02.211Z,1003.55
2018-03-24T05:07:11.044Z,1003.53
2018-03-24T05:08:19.877Z,1003.51
2018-03-24T05:09:28.986Z,1003.57
2018-03-24T05:10:37.818Z,1003.55
2018-03-24T05:11:46.940Z,1003.59
2018-03-24T05:12:55.771Z,1003.6
2018-03-24T05:14:04.602Z,1003.62
2018-03-24T05:15:13.709Z,1003.65
2018-03-24T05:16:22.543Z,1003.62
2018-03-24T05:17:31.526Z,1003.62
2018-03-24T05:18:40.358Z,1003.62
2018-03-24T05:19:49.188Z,1003.64
2018-03-24T05:20:58.016Z,1003.64
2018-03-24T05:22:07.127Z,1003.63
2018-03-24T05:23:15.957Z,1003.66
2018-03-24T05:24:24.789Z,1003.68
2018-03-24T05:25:33.902Z,1003.7
2018-03-24T05:26:42.734Z,1003.66
2018-03-24T05:27:52.119Z,1003.67
2018-03-24T05:29:00.949Z,1003.66
2018-03-24T05:30:09.779Z,1003.64
2018-03-24T05:31:18.610Z,1003.69
2018-03-24T05:32:27.440Z,1003.67
2018-03-24T05:33:36.271Z,1003.67
2018-03-24T05:34:45.403Z,1003.66
2018-03-24T05:35:54.234Z,1003.73
2018-03-24T05:37:03.063Z,1003.71
2018-03-24T05:38:11.895Z,1003.71
2018-03-24T05:39:20.726Z,1003.73
2018-03-24T05:40:29.854Z,1003.72
2018-03-24T05:41:38.686Z,1003.74
2018-03-24T05:42:47.805Z,1003.76
2018-03-24T05:43:56.630Z,1003.78
2018-03-24T05:45:05.462Z,1003.77
2018-03-24T05:46:14.570Z,1003.79
2018-03-24T05:47:23.400Z,1003.75
2018-03-24T05:48:32.239Z,1003.76
2018-03-24T05:49:41.059Z,1003.79
2018-03-24T05:50:49.891Z,1003.79
2018-03-24T05:51:58.726Z,1003.78
2018-03-24T05:53:07.555Z,1003.85
2018-03-24T05:54:16.385Z,1003.83
2018-03-24T05:55:25.218Z,1003.82
2018-03-24T05:56:34.047Z,1003.89
2018-03-24T05:57:42.881Z,1003.88
2018-03-24T05:58:51.712Z,1003.87
2018-03-24T06:00:00.545Z,1003.88
2018-03-24T06:01:09.378Z,1003.87
2018-03-24T06:02:18.486Z,1003.93
2018-03-24T06:03:27.618Z,1003.9
2018-03-24T06:04:36.448Z,1003.86
2018-03-24T06:05:45.278Z,1003.88
2018-03-24T06:06:54.109Z,1003.9
2018-03-24T06:08:02.939Z,1003.9
2018-03-24T06:09:12.144Z,1003.91
2018-03-24T06:10:20.975Z,1003.92
2018-03-24T06:11:29.806Z,1003.93
2018-03-24T06:12:38.914Z,1003.93
2018-03-24T06:13:47.743Z,1003.97
2018-03-24T06:14:56.632Z,1003.99
2018-03-24T06:16:05.462Z,1003.96
2018-03-24T06:17:14.292Z,1004.02
2018-03-24T06:18:23.121Z,1004.02
2018-03-24T06:19:31.955Z,1004.02
2018-03-24T06:20:41.036Z,1004.05
2018-03-24T06:21:49.868Z,1004.06
2018-03-24T06:22:58.698Z,1004.08
2018-03-24T06:24:07.528Z,1004.09
2018-03-24T06:25:16.362Z,1004.07
2018-03-24T06:26:25.344Z,1004.09
2018-03-24T06:27:34.174Z,1004.11
2018-03-24T06:28:43.007Z,1004.07
2018-03-24T06:29:51.837Z,1004.1
2018-03-24T06:31:00.667Z,1004.12
2018-03-24T06:32:10.075Z,1004.14
2018-03-24T06:33:18.907Z,1004.1
2018-03-24T06:34:27.739Z,1004.11
2018-03-24T06:35:36.845Z,1004.17
2018-03-24T06:36:45.680Z,1004.19
2018-03-24T06:37:54.609Z,1004.19
2018-03-24T06:39:03.769Z,1004.14
2018-03-24T06:40:12.599Z,1004.12
2018-03-24T06:41:21.431Z,1004.14
2018-03-24T06:42:30.264Z,1004.15
2018-03-24T06:43:39.248Z,1004.16
2018-03-24T06:44:48.148Z,1004.16
2018-03-24T06:45:56.908Z,1004.16
2018-03-24T06:47:05.742Z,1004.17
2018-03-24T06:48:14.574Z,1004.19
2018-03-24T06:49:23.456Z,1004.19
2018-03-24T06:50:32.288Z,1004.18
2018-03-24T06:51:41.119Z,1004.23
2018-03-24T06:52:50.229Z,1004.23
2018-03-24T06:53:59.068Z,1004.22
2018-03-24T06:55:08.195Z,1004.21
2018-03-24T06:56:17.305Z,1004.18
2018-03-24T06:57:26.138Z,1004.18
2018-03-24T06:58:34.972Z,1004.23
2018-03-24T06:59:43.805Z,1004.22
2018-03-24T07:00:52.697Z,1004.24
2018-03-24T07:02:01.802Z,1004.3
2018-03-24T07:03:10.634Z,1004.31
2018-03-24T07:04:19.468Z,1004.22
2018-03-24T07:05:28.304Z,1004.26
2018-03-24T07:06:37.283Z,1004.26
2018-03-24T07:07:46.419Z,1004.28
2018-03-24T07:08:55.225Z,1004.3
2018-03-24T07:10:04.384Z,1004.29
2018-03-24T07:11:13.217Z,1004.29
2018-03-24T07:12:22.325Z,1004.28
2018-03-24T07:13:31.155Z,1004.31
2018-03-24T07:14:39.987Z,1004.3
2018-03-24T07:15:48.883Z,1004.36
2018-03-24T07:16:57.653Z,1004.34
2018-03-24T07:18:07.194Z,1004.32
2018-03-24T07:19:16.027Z,1004.31
2018-03-24T07:20:24.861Z,1004.3
2018-03-24T07:21:33.696Z,1004.3
2018-03-24T07:22:42.526Z,1004.28
2018-03-24T07:23:51.458Z,1004.33
2018-03-24T07:25:00.295Z,1004.32
2018-03-24T07:26:09.127Z,1004.35
2018-03-24T07:27:18.234Z,1004.37
2018-03-24T07:28:27.064Z,1004.38
2018-03-24T07:29:35.997Z,1004.35
2018-03-24T07:30:44.831Z,1004.42
2018-03-24T07:31:53.662Z,1004.32
2018-03-24T07:33:02.496Z,1004.32
2018-03-24T07:34:11.329Z,1004.31
2018-03-24T07:35:20.313Z,1004.32
2018-03-24T07:36:29.146Z,1004.38
2018-03-24T07:37:37.978Z,1004.37
2018-03-24T07:38:46.810Z,1004.36
2018-03-24T07:39:55.643Z,1004.34
2018-03-24T07:41:04.578Z,1004.33
2018-03-24T07:42:13.408Z,1004.3
2018-03-24T07:43:22.241Z,1004.28
2018-03-24T07:44:31.072Z,1004.32
2018-03-24T07:45:39.902Z,1004.28
2018-03-24T07:46:48.836Z,1004.28
2018-03-24T07:47:57.669Z,1004.3
2018-03-24T07:49:06.505Z,1004.3
2018-03-24T07:50:15.340Z,1004.32
2018-03-24T07:51:24.174Z,1004.35
2018-03-24T07:52:33.313Z,1004.32
2018-03-24T07:53:42.154Z,1004.34
2018-03-24T07:54:50.977Z,1004.34
2018-03-24T07:56:00.085Z,1004.37
2018-03-24T07:57:09.471Z,1004.4
2018-03-24T07:58:18.306Z,1004.39
2018-03-24T07:59:27.153Z,1004.39
2018-03-24T08:00:35.972Z,1004.41
2018-03-24T08:01:44.814Z,1004.41
2018-03-24T08:02:53.643Z,1004.45
2018-03-24T08:04:02.529Z,1004.44
2018-03-24T08:05:11.362Z,1004.46
2018-03-24T08:06:20.199Z,1004.43
2018-03-24T08:07:29.029Z,1004.44
2018-03-24T08:08:37.864Z,1004.45
2018-03-24T08:09:47.127Z,1004.43
2018-03-24T08:10:55.959Z,1004.52
2018-03-24T08:12:05.067Z,1004.46
2018-03-24T08:13:13.899Z,1004.46
2018-03-24T08:14:22.731Z,1004.48
2018-03-24T08:15:31.888Z,1004.47
2018-03-24T08:16:40.721Z,1004.5
2018-03-24T08:17:49.555Z,1004.5
2018-03-24T08:18:58.391Z,1004.52
2018-03-24T08:20:07.222Z,1004.54
2018-03-24T08:21:16.054Z,1004.49
2018-03-24T08:22:24.888Z,1004.51
2018-03-24T08:23:33.995Z,1004.55
2018-03-24T08:24:43.107Z,1004.62
2018-03-24T08:25:52.219Z,1004.56
2018-03-24T08:27:01.212Z,1004.56
2018-03-24T08:28:10.044Z,1004.55
2018-03-24T08:29:18.878Z,1004.59
2018-03-24T08:30:27.715Z,1004.55
2018-03-24T08:31:36.550Z,1004.57
2018-03-24T08:32:45.438Z,1004.59
2018-03-24T08:33:54.272Z,1004.61
2018-03-24T08:35:03.387Z,1004.6
2018-03-24T08:36:12.223Z,1004.61
2018-03-24T08:37:21.060Z,1004.64
2018-03-24T08:38:30.517Z,1004.59
2018-03-24T08:39:39.356Z,1004.63
2018-03-24T08:40:48.469Z,1004.65
2018-03-24T08:41:57.303Z,1004.62
2018-03-24T08:43:06.135Z,1004.64
2018-03-24T08:44:15.253Z,1004.62
2018-03-24T08:45:24.090Z,1004.65
2018-03-24T08:46:32.922Z,1004.67
2018-03-24T08:47:41.754Z,1004.64
2018-03-24T08:48:50.588Z,1004.68
2018-03-24T08:49:59.521Z,1004.67
2018-03-24T08:51:08.354Z,1004.73
2018-03-24T08:52:17.186Z,1004.67
2018-03-24T08:53:26.019Z,1004.75
2018-03-24T08:54:35.149Z,1004.71
2018-03-24T08:55:44.034Z,1004.76
2018-03-24T08:56:52.871Z,1004.79
2018-03-24T08:58:01.701Z,1004.75
2018-03-24T08:59:10.544Z,1004.76
2018-03-24T09:00:19.377Z,1004.75
2018-03-24T09:01:28.367Z,1004.76
2018-03-24T09:02:37.202Z,1004.76
2018-03-24T09:03:46.040Z,1004.78
2018-03-24T09:04:54.874Z,1004.82
2018-03-24T09:06:03.709Z,1004.82
2018-03-24T09:07:12.946Z,1004.83
2018-03-24T09:08:22.057Z,1004.81
2018-03-24T09:09:30.894Z,1004.8
2018-03-24T09:10:39.729Z,1004.79
2018-03-24T09:11:48.564Z,1004.82
2018-03-24T09:12:57.800Z,1004.81
2018-03-24T09:14:06.635Z,1004.82
2018-03-24T09:15:15.470Z,1004.81
2018-03-24T09:16:24.316Z,1004.81
2018-03-24T09:17:33.142Z,1004.79
2018-03-24T09:18:42.126Z,1004.81
2018-03-24T09:19:50.965Z,1004.78
2018-03-24T09:20:59.800Z,1004.79
2018-03-24T09:22:08.925Z,1004.78
2018-03-24T09:23:18.048Z,1004.84
2018-03-24T09:24:26.986Z,1004.78
2018-03-24T09:25:35.822Z,1004.8
2018-03-24T09:26:44.657Z,1004.85
2018-03-24T09:27:53.490Z,1004.81
2018-03-24T09:29:02.324Z,1004.8
2018-03-24T09:30:11.585Z,1004.85
2018-03-24T09:31:20.421Z,1004.81
2018-03-24T09:32:29.255Z,1004.82
2018-03-24T09:33:38.094Z,1004.76
2018-03-24T09:34:47.205Z,1004.83
2018-03-24T09:35:56.440Z,1004.79
2018-03-24T09:37:05.277Z,1004.83
2018-03-24T09:38:14.391Z,1004.83
2018-03-24T09:39:23.229Z,1004.82
2018-03-24T09:40:32.340Z,1004.88
2018-03-24T09:41:41.601Z,1004.86
2018-03-24T09:42:50.434Z,1004.87
2018-03-24T09:43:59.269Z,1004.83
2018-03-24T09:45:08.102Z,1004.88
2018-03-24T09:46:16.935Z,1004.87
2018-03-24T09:47:25.923Z,1004.91
2018-03-24T09:48:34.753Z,1004.94
2018-03-24T09:49:43.589Z,1004.85
2018-03-24T09:50:52.424Z,1004.86
2018-03-24T09:52:01.258Z,1004.86
2018-03-24T09:53:10.245Z,1004.88
2018-03-24T09:54:19.081Z,1004.87
2018-03-24T09:55:27.925Z,1004.84
2018-03-24T09:56:36.754Z,1004.87
2018-03-24T09:57:45.591Z,1004.92
2018-03-24T09:58:54.479Z,1004.91
2018-03-24T10:00:03.587Z,1004.89
2018-03-24T10:01:12.423Z,1004.88
2018-03-24T10:02:21.259Z,1004.9
2018-03-24T10:03:30.095Z,1004.89
2018-03-24T10:04:38.931Z,1004.9
2018-03-24T10:05:47.766Z,1004.88
2018-03-24T10:06:56.602Z,1004.9
2018-03-24T10:08:05.447Z,1004.91
2018-03-24T10:09:14.564Z,1004.89
2018-03-24T10:10:23.592Z,1004.91
2018-03-24T10:11:32.427Z,1004.91
2018-03-24T10:12:41.265Z,1004.89
2018-03-24T10:13:50.102Z,1004.92
2018-03-24T10:14:58.943Z,1004.88
2018-03-24T10:16:07.977Z,1004.92
2018-03-24T10:17:16.813Z,1004.94
2018-03-24T10:18:25.649Z,1004.91
2018-03-24T10:19:34.495Z,1004.89
2018-03-24T10:20:43.321Z,1004.84
2018-03-24T10:21:52.159Z,1004.85
2018-03-24T10:23:00.996Z,1004.84
2018-03-24T10:24:09.832Z,1004.88
2018-03-24T10:25:18.672Z,1004.79
2018-03-24T10:26:27.510Z,1004.84
2018-03-24T10:27:36.446Z,1004.84
2018-03-24T10:28:45.282Z,1004.86
2018-03-24T10:29:54.118Z,1004.85
2018-03-24T10:31:02.954Z,1004.88
2018-03-24T10:32:11.790Z,1004.9
2018-03-24T10:33:20.778Z,1004.88
2018-03-24T10:34:29.618Z,1004.89
2018-03-24T10:35:38.456Z,1004.87
2018-03-24T10:36:47.292Z,1004.95
2018-03-24T10:37:56.130Z,1004.9
2018-03-24T10:39:05.017Z,1004.89
2018-03-24T10:40:13.855Z,1004.92
2018-03-24T10:41:22.729Z,1004.91
2018-03-24T10:42:31.854Z,1004.91
2018-03-24T10:43:40.693Z,1004.95
2018-03-24T10:44:49.919Z,1004.87
2018-03-24T10:45:58.755Z,1004.89
2018-03-24T10:47:07.593Z,1004.91
2018-03-24T10:48:16.427Z,1004.91
2018-03-24T10:49:25.263Z,1004.85
2018-03-24T10:50:34.251Z,1004.83
2018-03-24T10:51:43.367Z,1004.84
2018-03-24T10:52:52.203Z,1004.87
2018-03-24T10:54:01.042Z,1004.89
2018-03-24T10:55:09.876Z,1004.88
2018-03-24T10:56:19.014Z,1004.89
2018-03-24T10:57:28.403Z,1004.84
2018-03-24T10:58:37.237Z,1004.88
2018-03-24T10:59:46.076Z,1004.85
2018-03-24T11:00:54.914Z,1004.85
2018-03-24T11:02:03.852Z,1004.8
2018-03-24T11:03:12.687Z,1004.81
2018-03-24T11:04:21.520Z,1004.86
2018-03-24T11:05:30.356Z,1004.8
2018-03-24T11:06:39.196Z,1004.78
2018-03-24T11:07:48.560Z,1004.82
2018-03-24T11:08:57.398Z,1004.73
2018-03-24T11:10:06.235Z,1004.73
2018-03-24T11:11:15.089Z,1004.81
2018-03-24T11:12:23.949Z,1004.76
2018-03-24T11:13:33.039Z,1004.74
2018-03-24T11:14:41.876Z,1004.73
2018-03-24T11:15:50.712Z,1004.75
2018-03-24T11:16:59.548Z,1004.72
2018-03-24T11:18:08.385Z,1004.75
2018-03-24T11:19:17.271Z,1004.71
2018-03-24T11:20:26.109Z,1004.74
2018-03-24T11:21:34.947Z,1004.73
2018-03-24T11:22:43.789Z,1004.71
2018-03-24T11:23:52.899Z,1004.73
2018-03-24T11:25:01.736Z,1004.73
2018-03-24T11:26:10.576Z,1004.76
2018-03-24T11:27:19.408Z,1004.72
2018-03-24T11:28:28.244Z,1004.74
2018-03-24T11:29:37.081Z,1004.7
2018-03-24T11:30:45.971Z,1004.72
2018-03-24T11:31:54.810Z,1004.73
2018-03-24T11:33:03.955Z,1004.74
2018-03-24T11:34:12.762Z,1004.77
2018-03-24T11:35:21.876Z,1004.78
2018-03-24T11:36:30.914Z,1004.76
2018-03-24T11:37:39.750Z,1004.77
2018-03-24T11:38:48.621Z,1004.79
2018-03-24T11:39:57.735Z,1004.82
2018-03-24T11:41:06.571Z,1004.78
2018-03-24T11:42:15.514Z,1004.8
2018-03-24T11:43:24.352Z,1004.79
2018-03-24T11:44:33.189Z,1004.79
2018-03-24T11:45:42.029Z,1004.75
2018-03-24T11:46:50.869Z,1004.82
2018-03-24T11:47:59.855Z,1004.72
2018-03-24T11:49:08.690Z,1004.81
2018-03-24T11:50:17.539Z,1004.8
2018-03-24T11:51:26.372Z,1004.77
2018-03-24T11:52:35.203Z,1004.75
2018-03-24T11:53:44.364Z,1004.72
2018-03-24T11:54:53.201Z,1004.74
2018-03-24T11:56:02.038Z,1004.78
2018-03-24T11:57:10.878Z,1004.74
2018-03-24T11:58:19.991Z,1004.71
2018-03-24T11:59:28.830Z,1004.75
2018-03-24T12:00:37.668Z,1004.76
2018-03-24T12:01:46.504Z,1004.7
2018-03-24T12:02:55.340Z,1004.72
2018-03-24T12:04:04.179Z,1004.71
2018-03-24T12:05:13.118Z,1004.71
2018-03-24T12:06:22.231Z,1004.73
2018-03-24T12:07:31.068Z,1004.67
2018-03-24T12:08:39.906Z,1004.71
2018-03-24T12:09:48.744Z,1004.73
2018-03-24T12:10:57.679Z,1004.68
2018-03-24T12:12:06.790Z,1004.65
2018-03-24T12:13:15.627Z,1004.65
2018-03-24T12:14:24.463Z,1004.69
2018-03-24T12:15:33.301Z,1004.65
2018-03-24T12:16:42.248Z,1004.7
2018-03-24T12:17:51.084Z,1004.64
2018-03-24T12:18:59.923Z,1004.66
2018-03-24T12:20:09.037Z,1004.67
2018-03-24T12:21:18.150Z,1004.64
2018-03-24T12:22:27.081Z,1004.64
2018-03-24T12:23:35.920Z,1004.66
2018-03-24T12:24:44.756Z,1004.66
2018-03-24T12:25:53.590Z,1004.67
2018-03-24T12:27:02.432Z,1004.64
2018-03-24T12:28:11.266Z,1004.66
2018-03-24T12:29:20.377Z,1004.64
2018-03-24T12:30:29.212Z,1004.62
2018-03-24T12:31:38.052Z,1004.65
2018-03-24T12:32:46.887Z,1004.65
2018-03-24T12:33:55.875Z,1004.67
2018-03-24T12:35:04.710Z,1004.69
2018-03-24T12:36:13.545Z,1004.69
2018-03-24T12:37:22.660Z,1004.74
2018-03-24T12:38:31.496Z,1004.71
2018-03-24T12:39:40.585Z,1004.69
2018-03-24T12:40:49.421Z,1004.71
2018-03-24T12:41:58.256Z,1004.68
2018-03-24T12:43:07.125Z,1004.71
2018-03-24T12:44:15.923Z,1004.66
2018-03-24T12:45:25.059Z,1004.69
2018-03-24T12:46:33.994Z,1004.68
2018-03-24T12:47:42.830Z,1004.72
2018-03-24T12:48:51.667Z,1004.68
2018-03-24T12:50:00.504Z,1004.68
2018-03-24T12:51:09.442Z,1004.68
2018-03-24T12:52:18.277Z,1004.7
2018-03-24T12:53:27.114Z,1004.66
2018-03-24T12:54:35.950Z,1004.7
2018-03-24T12:55:45.060Z,1004.69
2018-03-24T12:56:54.146Z,1004.65
2018-03-24T12:58:02.983Z,1004.67
2018-03-24T12:59:11.819Z,1004.69
2018-03-24T13:00:20.934Z,1004.68
2018-03-24T13:01:29.771Z,1004.66
2018-03-24T13:02:38.932Z,1004.72
2018-03-24T13:03:47.769Z,1004.74
2018-03-24T13:04:56.604Z,1004.71
2018-03-24T13:06:05.449Z,1004.7
2018-03-24T13:07:14.277Z,1004.74
2018-03-24T13:08:23.392Z,1004.7
2018-03-24T13:09:32.230Z,1004.69
2018-03-24T13:10:41.075Z,1004.72
2018-03-24T13:11:49.908Z,1004.72
2018-03-24T13:12:58.749Z,1004.74
2018-03-24T13:14:07.965Z,1004.7
2018-03-24T13:15:17.079Z,1004.73
2018-03-24T13:16:25.914Z,1004.72
2018-03-24T13:17:34.752Z,1004.73
2018-03-24T13:18:43.596Z,1004.7
2018-03-24T13:19:52.766Z,1004.69
2018-03-24T13:21:01.601Z,1004.72
2018-03-24T13:22:10.435Z,1004.72
2018-03-24T13:23:19.277Z,1004.71
2018-03-24T13:24:28.114Z,1004.66
2018-03-24T13:25:37.280Z,1004.69
2018-03-24T13:26:46.118Z,1004.67
2018-03-24T13:27:54.956Z,1004.64
2018-03-24T13:29:03.791Z,1004.68
2018-03-24T13:30:12.907Z,1004.68
2018-03-24T13:31:22.221Z,1004.66
2018-03-24T13:32:31.333Z,1004.62
2018-03-24T13:33:40.168Z,1004.65
2018-03-24T13:34:49.003Z,1004.66
2018-03-24T13:35:57.841Z,1004.68
2018-03-24T13:37:06.779Z,1004.68
2018-03-24T13:38:15.614Z,1004.7
2018-03-24T13:39:24.451Z,1004.72
2018-03-24T13:40:33.292Z,1004.72
2018-03-24T13:41:42.128Z,1004.65
2018-03-24T13:42:51.521Z,1004.69
2018-03-24T13:44:00.360Z,1004.67
2018-03-24T13:45:09.469Z,1004.71
2018-03-24T13:46:18.310Z,1004.71
2018-03-24T13:47:27.144Z,1004.69
2018-03-24T13:48:35.978Z,1004.68
2018-03-24T13:49:44.816Z,1004.7
2018-03-24T13:50:53.650Z,1004.69
2018-03-24T13:52:02.487Z,1004.64
2018-03-24T13:53:11.329Z,1004.69
2018-03-24T13:54:20.465Z,1004.69
2018-03-24T13:55:29.870Z,1004.64
2018-03-24T13:56:38.705Z,1004.67